createdAt,value
2023-01-17T00:02:24.716Z,48.67
2023-01-17T00:05:10.867Z,216.30
2023-01-17T00:07:57.100Z,149.77
2023-01-17T00:10:27.741Z,111.87
2023-01-17T00:13:02.012Z,183.50
2023-01-17T00:15:31.377Z,120.17
2023-01-17T00:17:59.542Z,109.27
2023-01-17T00:20:49.591Z,119.07
2023-01-17T00:23:45.473Z,108.27
2023-01-17T00:26:19.336Z,105.70
2023-01-17T00:28:49.054Z,158.67
2023-01-17T00:31:17.687Z,135.40
2023-01-17T00:33:45.184Z,127.87
2023-01-17T00:36:12.878Z,95.63
2023-01-17T00:38:41.284Z,131.20
2023-01-17T00:41:12.335Z,140.10
2023-01-17T00:43:58.739Z,150.33
2023-01-17T00:46:45.472Z,148.40
2023-01-17T00:49:31.815Z,207.60
2023-01-17T00:52:17.820Z,192.37
2023-01-17T00:55:03.771Z,196.83
2023-01-17T00:57:50.214Z,129.00
2023-01-17T01:00:39.719Z,154.33
2023-01-17T01:03:30.426Z,258.17
2023-01-17T01:06:16.739Z,76.53
2023-01-17T01:09:02.940Z,120.63
2023-01-17T01:11:49.086Z,50.33
2023-01-17T01:14:35.168Z,84.87
2023-01-17T01:17:21.316Z,119.23
2023-01-17T01:20:07.627Z,74.77
2023-01-17T01:22:53.867Z,65.37
2023-01-17T01:25:40.039Z,54.17
2023-01-17T01:28:30.917Z,40.07
2023-01-17T01:31:21.975Z,64.27
2023-01-17T01:33:53.154Z,52.00
2023-01-17T01:36:21.491Z,141.00
2023-01-17T01:38:50.345Z,151.47
2023-01-17T01:41:18.104Z,95.40
2023-01-17T01:43:54.623Z,73.53
2023-01-17T01:46:33.439Z,39.30
2023-01-17T01:49:20.809Z,40.70
2023-01-17T01:52:01.181Z,45.20
2023-01-17T01:54:40.063Z,50.23
2023-01-17T01:57:11.872Z,144.07
2023-01-17T01:59:46.982Z,179.93
2023-01-17T02:02:14.973Z,84.07
2023-01-17T02:04:45.099Z,53.23
2023-01-17T02:07:21.617Z,47.33
2023-01-17T02:09:50.171Z,40.60
2023-01-17T02:12:20.282Z,45.23
2023-01-17T02:14:47.887Z,42.53
2023-01-17T02:17:42.880Z,51.17
2023-01-17T02:20:58.218Z,48.80
2023-01-17T02:24:14.627Z,49.43
2023-01-17T02:26:58.423Z,53.47
2023-01-17T02:29:47.363Z,39.30
2023-01-17T02:32:32.933Z,37.53
2023-01-17T02:35:39.325Z,32.67
2023-01-17T02:38:44.079Z,48.60
2023-01-17T02:41:23.614Z,33.47
2023-01-17T02:43:53.427Z,23.13
2023-01-17T02:46:21.336Z,23.60
2023-01-17T02:48:49.568Z,24.77
2023-01-17T02:51:25.994Z,26.73
2023-01-17T02:54:22.594Z,28.13
2023-01-17T02:57:02.567Z,27.77
2023-01-17T03:00:00.630Z,30.60
2023-01-17T03:03:04.593Z,41.90
2023-01-17T03:05:47.228Z,21.20
2023-01-17T03:08:16.336Z,23.37
2023-01-17T03:10:45.300Z,22.87
2023-01-17T03:13:12.860Z,22.80
2023-01-17T03:15:41.736Z,20.73
2023-01-17T03:18:16.872Z,18.53
2023-01-17T03:20:44.556Z,24.03
2023-01-17T03:23:12.150Z,20.57
2023-01-17T03:25:39.643Z,28.13
2023-01-17T03:28:07.282Z,24.33
2023-01-17T03:30:34.877Z,24.33
2023-01-17T03:33:02.520Z,32.37
2023-01-17T03:35:30.018Z,22.53
2023-01-17T03:37:57.585Z,20.60
2023-01-17T03:40:25.123Z,18.90
2023-01-17T03:42:52.615Z,21.90
2023-01-17T03:45:20.167Z,21.37
2023-01-17T03:47:47.656Z,28.60
2023-01-17T03:50:15.462Z,32.97
2023-01-17T03:52:43.130Z,26.63
2023-01-17T03:55:11.089Z,27.60
2023-01-17T03:57:38.740Z,22.97
2023-01-17T04:00:07.851Z,24.73
2023-01-17T04:02:35.625Z,24.47
2023-01-17T04:05:03.451Z,31.87
2023-01-17T04:07:33.610Z,26.97
2023-01-17T04:10:01.670Z,26.07
2023-01-17T04:12:29.253Z,25.93
2023-01-17T04:14:56.729Z,23.93
2023-01-17T04:17:24.652Z,24.90
2023-01-17T04:19:52.412Z,481.13
2023-01-17T04:22:19.863Z,39.87
2023-01-17T04:24:47.426Z,37.47
2023-01-17T04:27:14.938Z,41.43
2023-01-17T04:29:42.499Z,39.40
2023-01-17T04:32:10.075Z,41.47
2023-01-17T04:34:37.564Z,56.63
2023-01-17T04:37:05.025Z,32.67
2023-01-17T04:39:32.527Z,31.60
2023-01-17T04:42:00.017Z,54.73
2023-01-17T04:44:27.533Z,99.83
2023-01-17T04:46:54.981Z,128.17
2023-01-17T04:49:22.485Z,27.83
2023-01-17T04:51:50.061Z,24.40
2023-01-17T04:54:17.621Z,89.43
2023-01-17T04:56:45.109Z,27.83
2023-01-17T04:59:12.652Z,31.00
2023-01-17T05:01:40.351Z,25.03
2023-01-17T05:04:07.964Z,29.20
2023-01-17T05:06:35.527Z,27.33
2023-01-17T05:09:03.104Z,40.27
2023-01-17T05:11:30.649Z,45.97
2023-01-17T05:13:58.244Z,66.50
2023-01-17T05:16:27.640Z,124.03
2023-01-17T05:18:55.178Z,154.23
2023-01-17T05:21:23.287Z,188.77
2023-01-17T05:23:50.916Z,182.63
2023-01-17T05:26:18.608Z,183.83
2023-01-17T05:28:46.172Z,190.80
2023-01-17T05:31:13.930Z,148.40
2023-01-17T05:33:41.540Z,196.30
2023-01-17T05:36:10.038Z,183.77
2023-01-17T05:38:37.468Z,130.40
2023-01-17T05:41:05.207Z,152.30
2023-01-17T05:43:32.771Z,153.57
2023-01-17T05:46:01.001Z,148.03
2023-01-17T05:48:28.582Z,176.90
2023-01-17T05:50:56.442Z,133.60
2023-01-17T05:53:25.187Z,156.40
2023-01-17T05:55:52.716Z,104.13
2023-01-17T05:58:22.677Z,132.57
2023-01-17T06:00:51.763Z,104.70
2023-01-17T06:03:19.525Z,127.37
2023-01-17T06:05:47.462Z,149.87
2023-01-17T06:08:15.856Z,139.67
2023-01-17T06:10:43.515Z,210.63
2023-01-17T06:13:15.401Z,108.00
2023-01-17T06:15:43.068Z,88.70
2023-01-17T06:18:16.371Z,88.67
2023-01-17T06:20:44.812Z,67.83
2023-01-17T06:23:15.133Z,45.00
2023-01-17T06:25:47.383Z,41.17
2023-01-17T06:28:21.081Z,40.33
2023-01-17T06:30:49.262Z,36.00
2023-01-17T06:33:17.415Z,32.23
2023-01-17T06:35:52.862Z,37.07
2023-01-17T06:38:21.584Z,44.33
2023-01-17T06:40:49.175Z,49.23
2023-01-17T06:43:17.105Z,49.33
2023-01-17T06:45:44.570Z,37.27
2023-01-17T06:48:12.241Z,37.90
2023-01-17T06:50:39.709Z,51.33
2023-01-17T06:53:07.759Z,29.43
2023-01-17T06:55:39.638Z,36.13
2023-01-17T06:58:07.127Z,40.27
2023-01-17T07:00:40.288Z,40.67
2023-01-17T07:03:22.628Z,46.63
2023-01-17T07:05:51.220Z,41.43
2023-01-17T07:08:20.487Z,29.40
2023-01-17T07:10:49.090Z,27.40
2023-01-17T07:13:16.705Z,86.13
2023-01-17T07:15:44.256Z,40.37
2023-01-17T07:18:11.793Z,34.30
2023-01-17T07:20:39.305Z,34.00
2023-01-17T07:23:06.917Z,40.93
2023-01-17T07:25:34.394Z,37.40
2023-01-17T07:28:02.160Z,40.43
2023-01-17T07:30:31.273Z,29.03
2023-01-17T07:32:58.835Z,30.60
2023-01-17T07:35:26.802Z,38.47
2023-01-17T07:37:55.403Z,42.17
2023-01-17T07:40:23.659Z,32.90
2023-01-17T07:42:51.281Z,36.90
2023-01-17T07:45:19.928Z,33.40
2023-01-17T07:47:48.902Z,34.57
2023-01-17T07:50:16.542Z,36.67
2023-01-17T07:52:44.108Z,49.63
2023-01-17T07:55:11.683Z,38.63
2023-01-17T07:57:39.104Z,57.10
2023-01-17T08:00:08.157Z,67.70
2023-01-17T08:02:41.812Z,74.13
2023-01-17T08:05:09.892Z,62.27
2023-01-17T08:07:37.639Z,49.63
2023-01-17T08:10:07.411Z,42.80
2023-01-17T08:12:36.110Z,35.73
2023-01-17T08:15:03.821Z,25.23
2023-01-17T08:17:31.502Z,26.53
2023-01-17T08:19:59.226Z,29.23
2023-01-17T08:22:27.160Z,29.50
2023-01-17T08:24:54.671Z,35.40
2023-01-17T08:27:22.271Z,129.87
2023-01-17T08:29:49.841Z,66.00
2023-01-17T08:32:17.430Z,32.93
2023-01-17T08:34:44.872Z,32.97
2023-01-17T08:37:12.333Z,54.47
2023-01-17T08:39:39.915Z,38.77
2023-01-17T08:42:07.447Z,43.97
2023-01-17T08:44:36.002Z,43.30
2023-01-17T08:47:03.532Z,61.20
2023-01-17T08:49:30.979Z,42.97
2023-01-17T08:51:58.593Z,53.17
2023-01-17T08:54:26.105Z,39.40
2023-01-17T08:56:55.741Z,43.07
2023-01-17T08:59:23.672Z,36.73
2023-01-17T09:01:52.563Z,43.07
2023-01-17T09:04:20.294Z,42.03
2023-01-17T09:06:48.480Z,42.40
2023-01-17T09:09:17.784Z,44.37
2023-01-17T09:11:45.319Z,65.00
2023-01-17T09:14:14.061Z,53.37
2023-01-17T09:16:41.619Z,60.90
2023-01-17T09:19:11.541Z,43.83
2023-01-17T09:21:39.038Z,49.73
2023-01-17T09:24:06.828Z,52.50
2023-01-17T09:26:34.490Z,54.33
2023-01-17T09:29:02.009Z,52.70
2023-01-17T09:31:30.135Z,73.80
2023-01-17T09:33:59.040Z,73.20
2023-01-17T09:36:34.832Z,66.90
2023-01-17T09:39:03.885Z,60.87
2023-01-17T09:41:49.936Z,56.27
2023-01-17T09:44:51.703Z,52.57
2023-01-17T09:47:45.475Z,50.17
2023-01-17T09:50:16.069Z,49.50
2023-01-17T09:52:45.031Z,46.10
2023-01-17T09:55:17.709Z,47.07
2023-01-17T09:58:02.849Z,56.53
2023-01-17T10:00:56.253Z,56.60
2023-01-17T10:03:59.823Z,59.67
2023-01-17T10:07:10.693Z,61.53
2023-01-17T10:10:33.563Z,67.97
2023-01-17T10:13:33.312Z,67.80
2023-01-17T10:16:28.160Z,61.53
2023-01-17T10:19:15.089Z,69.23
2023-01-17T10:22:13.349Z,67.00
2023-01-17T10:24:52.316Z,59.20
2023-01-17T10:27:29.525Z,58.13
2023-01-17T10:29:58.087Z,58.97
2023-01-17T10:32:31.723Z,52.43
2023-01-17T10:35:08.072Z,53.70
2023-01-17T10:37:43.783Z,60.17
2023-01-17T10:40:29.540Z,56.30
2023-01-17T10:43:20.514Z,53.47
2023-01-17T10:45:57.760Z,53.33
2023-01-17T10:48:53.963Z,53.07
2023-01-17T10:52:08.402Z,48.70
2023-01-17T10:54:55.274Z,61.67
2023-01-17T10:57:28.254Z,54.97
2023-01-17T11:00:01.439Z,54.50
2023-01-17T11:02:43.054Z,54.30
2023-01-17T11:05:29.095Z,56.53
2023-01-17T11:08:11.336Z,48.20
2023-01-17T11:10:54.062Z,73.77
2023-01-17T11:13:35.696Z,52.93
2023-01-17T11:16:13.120Z,61.37
2023-01-17T11:18:41.053Z,49.93
2023-01-17T11:21:26.066Z,52.63
2023-01-17T11:23:57.302Z,55.37
2023-01-17T11:26:33.010Z,44.83
2023-01-17T11:29:32.342Z,40.27
2023-01-17T11:32:35.197Z,43.57
2023-01-17T11:35:18.914Z,40.40
2023-01-17T11:37:59.279Z,43.47
2023-01-17T11:40:49.895Z,53.37
2023-01-17T11:43:27.383Z,48.30
2023-01-17T11:46:18.034Z,50.13
2023-01-17T11:48:56.055Z,47.67
2023-01-17T11:51:32.459Z,47.00
2023-01-17T11:54:25.926Z,41.97
2023-01-17T11:57:01.284Z,40.70
2023-01-17T11:59:35.197Z,46.60
2023-01-17T12:02:25.862Z,47.57
2023-01-17T12:05:09.452Z,43.60
2023-01-17T12:07:47.149Z,43.13
2023-01-17T12:10:49.321Z,41.93
2023-01-17T12:14:01.120Z,40.73
2023-01-17T12:16:55.732Z,39.67
2023-01-17T12:19:32.392Z,38.50
2023-01-17T12:22:14.406Z,37.07
2023-01-17T12:25:28.763Z,39.87
2023-01-17T12:28:53.058Z,34.77
2023-01-17T12:31:41.515Z,33.40
2023-01-17T12:34:25.024Z,32.77
2023-01-17T12:37:07.453Z,41.50
2023-01-17T12:39:41.291Z,37.17
2023-01-17T12:42:44.596Z,34.73
2023-01-17T12:45:33.762Z,32.43
2023-01-17T12:48:15.003Z,35.27
2023-01-17T12:50:52.695Z,32.70
2023-01-17T12:54:01.688Z,34.13
2023-01-17T12:56:44.455Z,32.20
2023-01-17T12:59:38.223Z,29.90
2023-01-17T13:02:31.988Z,26.07
2023-01-17T13:05:40.557Z,24.53
2023-01-17T13:08:24.511Z,20.90
2023-01-17T13:11:12.158Z,20.67
2023-01-17T13:13:43.385Z,21.43
2023-01-17T13:16:37.660Z,19.47
2023-01-17T13:19:27.650Z,18.43
2023-01-17T13:21:58.205Z,15.20
2023-01-17T13:25:00.477Z,14.07
2023-01-17T13:27:27.875Z,13.73
2023-01-17T13:30:01.271Z,13.40
2023-01-17T13:33:18.476Z,16.13
2023-01-17T13:36:17.416Z,10.97
2023-01-17T13:39:29.660Z,11.50
2023-01-17T13:42:10.930Z,14.53
2023-01-17T13:44:39.126Z,37.70
2023-01-17T13:47:18.816Z,89.13
2023-01-17T13:49:50.694Z,84.10
2023-01-17T13:52:21.105Z,47.80
2023-01-17T13:55:01.964Z,29.27
2023-01-17T13:57:31.588Z,14.40
2023-01-17T14:00:25.098Z,26.73
2023-01-17T14:02:55.499Z,19.03
2023-01-17T14:05:47.481Z,35.83
2023-01-17T14:08:21.891Z,20.03
2023-01-17T14:10:54.026Z,23.57
2023-01-17T14:13:37.368Z,8.83
2023-01-17T14:16:31.388Z,10.00
2023-01-17T14:18:59.242Z,9.13
2023-01-17T14:21:32.757Z,8.87
2023-01-17T14:24:18.305Z,11.87
2023-01-17T14:27:15.864Z,8.13
2023-01-17T14:29:47.400Z,12.33
2023-01-17T14:32:20.554Z,9.93
2023-01-17T14:34:53.139Z,7.33
2023-01-17T14:37:46.134Z,6.67
2023-01-17T14:40:26.645Z,5.27
2023-01-17T14:43:13.236Z,8.77
2023-01-17T14:45:43.115Z,8.43
2023-01-17T14:48:23.984Z,11.20
2023-01-17T14:51:01.881Z,8.13
2023-01-17T14:53:33.977Z,9.57
2023-01-17T14:56:16.984Z,6.40
2023-01-17T14:58:46.671Z,13.57
2023-01-17T15:01:18.901Z,11.97
2023-01-17T15:03:54.760Z,9.00
2023-01-17T15:06:39.014Z,7.40
2023-01-17T15:09:18.473Z,10.17
2023-01-17T15:11:50.602Z,10.60
2023-01-17T15:14:42.098Z,13.77
2023-01-17T15:17:21.927Z,142.67
2023-01-17T15:19:56.027Z,265.80
2023-01-17T15:22:25.891Z,363.33
2023-01-17T15:24:54.454Z,165.70
2023-01-17T15:27:22.299Z,59.13
2023-01-17T15:29:51.251Z,145.50
2023-01-17T15:32:28.037Z,135.47
2023-01-17T15:34:57.080Z,57.03
2023-01-17T15:37:34.964Z,55.63
2023-01-17T15:40:19.088Z,60.73
2023-01-17T15:42:59.497Z,25.40
2023-01-17T15:45:33.402Z,38.50
2023-01-17T15:48:41.208Z,25.90
2023-01-17T15:51:12.541Z,29.27
2023-01-17T15:53:44.045Z,14.77
2023-01-17T15:56:32.997Z,27.63
2023-01-17T15:59:32.678Z,31.37
2023-01-17T16:02:00.309Z,47.23
2023-01-17T16:04:34.793Z,34.87
2023-01-17T16:07:20.482Z,8.10
2023-01-17T16:09:53.966Z,15.43
2023-01-17T16:12:22.752Z,19.43
2023-01-17T16:15:06.605Z,13.80
2023-01-17T16:17:48.817Z,15.60
2023-01-17T16:20:58.608Z,6.63
2023-01-17T16:23:26.700Z,3.17
2023-01-17T16:25:54.218Z,15.47
2023-01-17T16:28:21.916Z,45.73
2023-01-17T16:30:49.562Z,48.20
2023-01-17T16:33:17.161Z,21.70
2023-01-17T16:35:44.823Z,9.23
2023-01-17T16:38:19.880Z,4.97
2023-01-17T16:40:48.437Z,4.17
2023-01-17T16:43:18.997Z,5.67
2023-01-17T16:45:50.379Z,8.03
2023-01-17T16:48:19.295Z,8.73
2023-01-17T16:50:52.246Z,7.50
2023-01-17T16:53:27.146Z,10.63
2023-01-17T16:56:08.518Z,10.87
2023-01-17T16:58:42.009Z,13.97
2023-01-17T17:01:16.075Z,8.73
2023-01-17T17:03:47.155Z,16.10
2023-01-17T17:06:15.168Z,19.07
2023-01-17T17:08:45.935Z,14.73
2023-01-17T17:11:23.239Z,8.63
2023-01-17T17:13:52.285Z,17.97
2023-01-17T17:16:26.636Z,17.00
2023-01-17T17:18:59.836Z,12.20
2023-01-17T17:21:28.673Z,16.30
2023-01-17T17:23:58.894Z,11.70
2023-01-17T17:26:34.498Z,9.73
2023-01-17T17:29:03.398Z,13.83
2023-01-17T17:31:31.003Z,11.23
2023-01-17T17:34:03.010Z,11.53
2023-01-17T17:36:31.512Z,11.53
2023-01-17T17:39:01.090Z,11.60
2023-01-17T17:41:35.157Z,20.80
2023-01-17T17:44:05.528Z,31.73
2023-01-17T17:46:35.209Z,93.80
2023-01-17T17:49:27.186Z,68.90
2023-01-17T17:51:54.939Z,82.30
2023-01-17T17:54:25.727Z,31.00
2023-01-17T17:56:53.982Z,22.63
2023-01-17T17:59:24.287Z,28.17
2023-01-17T18:01:52.644Z,52.93
2023-01-17T18:04:21.740Z,16.27
2023-01-17T18:06:49.922Z,11.67
2023-01-17T18:09:17.851Z,15.67
2023-01-17T18:11:49.600Z,14.17
2023-01-17T18:14:21.229Z,16.40
2023-01-17T18:16:49.157Z,17.07
2023-01-17T18:19:24.107Z,19.53
2023-01-17T18:21:52.625Z,74.17
2023-01-17T18:24:41.951Z,22.50
2023-01-17T18:27:10.791Z,34.93
2023-01-17T18:29:59.449Z,21.00
2023-01-17T18:32:31.586Z,16.17
2023-01-17T18:35:03.178Z,7.83
2023-01-17T18:37:33.396Z,7.10
2023-01-17T18:40:01.409Z,6.13
2023-01-17T18:42:33.901Z,5.30
2023-01-17T18:45:04.995Z,4.93
2023-01-17T18:47:38.764Z,4.30
2023-01-17T18:50:07.702Z,4.13
2023-01-17T18:52:35.493Z,5.07
2023-01-17T18:55:03.165Z,7.20
2023-01-17T18:57:31.703Z,7.83
2023-01-17T19:00:00.092Z,7.47
2023-01-17T19:02:30.807Z,4.73
2023-01-17T19:04:58.947Z,6.30
2023-01-17T19:07:29.867Z,3.53
2023-01-17T19:09:57.503Z,3.70
2023-01-17T19:12:26.389Z,3.47
2023-01-17T19:14:54.103Z,7.17
2023-01-17T19:17:22.015Z,4.03
2023-01-17T19:19:50.862Z,8.17
2023-01-17T19:22:18.663Z,4.23
2023-01-17T19:24:48.795Z,5.03
2023-01-17T19:27:18.995Z,5.63
2023-01-17T19:29:47.209Z,5.20
2023-01-17T19:32:16.115Z,4.57
2023-01-17T19:34:43.836Z,3.87
2023-01-17T19:37:11.537Z,6.97
2023-01-17T19:39:42.022Z,6.40
2023-01-17T19:42:29.759Z,5.83
2023-01-17T19:44:58.082Z,2.97
2023-01-17T19:47:25.831Z,2.93
2023-01-17T19:49:53.515Z,5.77
2023-01-17T19:52:22.494Z,4.70
2023-01-17T19:54:50.787Z,5.90
2023-01-17T19:57:23.315Z,6.53
2023-01-17T19:59:52.195Z,9.87
2023-01-17T20:02:20.217Z,15.40
2023-01-17T20:04:53.531Z,12.93
2023-01-17T20:07:22.977Z,16.77
2023-01-17T20:09:50.727Z,5.10
2023-01-17T20:12:18.614Z,13.43
2023-01-17T20:14:46.359Z,13.20
2023-01-17T20:17:14.012Z,7.93
2023-01-17T20:19:46.666Z,17.17
2023-01-17T20:22:14.276Z,15.67
2023-01-17T20:24:43.325Z,22.23
2023-01-17T20:27:14.519Z,15.83
2023-01-17T20:29:46.332Z,19.37
2023-01-17T20:32:13.905Z,18.03
2023-01-17T20:34:45.535Z,16.83
2023-01-17T20:37:15.780Z,15.97
2023-01-17T20:39:48.127Z,9.20
2023-01-17T20:42:15.977Z,7.20
2023-01-17T20:44:43.686Z,12.33
2023-01-17T20:47:11.274Z,5.63
2023-01-17T20:49:45.057Z,8.23
2023-01-17T20:52:15.457Z,10.17
2023-01-17T20:54:48.633Z,16.57
2023-01-17T20:57:17.574Z,8.27
2023-01-17T20:59:49.945Z,6.53
2023-01-17T21:02:19.248Z,6.77
2023-01-17T21:04:47.912Z,6.47
2023-01-17T21:07:16.413Z,5.03
2023-01-17T21:09:43.982Z,7.60
2023-01-17T21:12:11.531Z,9.27
2023-01-17T21:14:43.061Z,3.10
2023-01-17T21:17:16.196Z,1.10
2023-01-17T21:19:44.160Z,2.53
2023-01-17T21:22:16.680Z,2.47
2023-01-17T21:24:44.244Z,2.93
2023-01-17T21:27:13.026Z,3.77
2023-01-17T21:29:40.599Z,1.50
2023-01-17T21:32:08.761Z,3.30
2023-01-17T21:34:36.423Z,3.23
2023-01-17T21:37:05.609Z,1.87
2023-01-17T21:39:36.194Z,3.83
2023-01-17T21:42:03.796Z,2.63
2023-01-17T21:44:36.999Z,1.83
2023-01-17T21:47:04.651Z,5.07
2023-01-17T21:49:32.534Z,3.23
2023-01-17T21:52:00.155Z,3.23
2023-01-17T21:54:48.706Z,1.70
2023-01-17T21:57:40.541Z,1.77
2023-01-17T22:00:15.887Z,1.70
2023-01-17T22:03:07.869Z,4.80
2023-01-17T22:05:35.859Z,4.13
2023-01-17T22:08:12.697Z,2.53
2023-01-17T22:10:45.735Z,4.73
2023-01-17T22:13:20.543Z,3.03
2023-01-17T22:15:59.524Z,3.70
2023-01-17T22:18:28.609Z,3.07
2023-01-17T22:20:57.416Z,4.97
2023-01-17T22:23:27.516Z,3.83
2023-01-17T22:26:00.857Z,5.00
2023-01-17T22:28:32.072Z,1.93
2023-01-17T22:31:11.032Z,2.73
2023-01-17T22:33:40.912Z,4.17
2023-01-17T22:36:10.720Z,3.70
2023-01-17T22:38:38.180Z,3.17
2023-01-17T22:41:16.123Z,4.60
2023-01-17T22:43:49.737Z,8.30
2023-01-17T22:46:24.981Z,2.50
2023-01-17T22:48:54.853Z,3.70
2023-01-17T22:53:34.481Z,5.77
2023-01-17T22:56:06.971Z,4.80
2023-01-17T22:58:35.634Z,3.80
2023-01-17T23:01:09.011Z,5.63
2023-01-17T23:03:37.063Z,4.40
2023-01-17T23:06:26.159Z,4.67
2023-01-17T23:08:57.109Z,3.93
2023-01-17T23:11:41.330Z,5.97
2023-01-17T23:14:53.897Z,5.77
2023-01-17T23:17:42.345Z,2.90
2023-01-17T23:20:12.070Z,2.87
2023-01-17T23:22:40.117Z,4.67
2023-01-17T23:25:13.016Z,4.10
2023-01-17T23:28:04.790Z,6.60
2023-01-17T23:30:34.612Z,5.17
2023-01-17T23:33:08.399Z,8.63
2023-01-17T23:35:41.726Z,5.43
2023-01-17T23:38:34.666Z,4.60
2023-01-17T23:41:26.088Z,5.60
2023-01-17T23:43:58.984Z,4.67
2023-01-17T23:46:27.484Z,6.57
2023-01-17T23:48:55.395Z,4.93
2023-01-17T23:51:24.111Z,5.93
2023-01-17T23:53:57.399Z,5.97
2023-01-17T23:56:25.289Z,6.50
2023-01-17T23:58:52.821Z,6.63
